This is the latest recevied weather packets stored in our database for station/object SQ3RAX-13. If no packets are shown the sender has not sent any weather packets the latest 10 day(s).
| Time | Temp. | Humidity | Pressure | Rain* | Wind** | Luminosity | Snow |
|---|---|---|---|---|---|---|---|
| 1777598700 | 5.56° C | 74% | 1028 hPa | 0 mm | - | - | - |
| 1777598100 | 5.56° C | 74% | 1028 hPa | 0 mm | - | - | - |
| 1777597500 | 5.56° C | 78% | 1029 hPa | 0 mm | - | - | - |
| 1777596900 | 5.56° C | 78% | 1029 hPa | 0 mm | - | - | - |
| 1777596300 | 5.56° C | 79% | 1029 hPa | 0 mm | - | - | - |
| 1777595700 | 5.56° C | 78% | 1029 hPa | 0 mm | - | - | - |
| 1777595100 | 6.11° C | 73% | 1028 hPa | 0 mm | - | - | - |
| 1777594500 | 6.11° C | 71% | 1028 hPa | 0 mm | - | - | - |
| 1777593900 | 5.56° C | 75% | 1029 hPa | 0 mm | - | - | - |
| 1777593300 | 6.11° C | 75% | 1029 hPa | 0 mm | - | - | - |
| 1777592700 | 6.11° C | 75% | 1029 hPa | 0 mm | - | - | - |
| 1777592100 | 6.67° C | 69% | 1028 hPa | 0 mm | - | - | - |
| 1777591500 | 6.67° C | 69% | 1028 hPa | 0 mm | - | - | - |
| 1777590900 | 7.22° C | 66% | 1028 hPa | 0 mm | - | - | - |
| 1777590300 | 6.67° C | 72% | 1029 hPa | 0 mm | - | - | - |
| 1777589700 | 6.67° C | 72% | 1029 hPa | 0 mm | - | - | - |
| 1777589100 | 6.67° C | 72% | 1029 hPa | 0 mm | - | - | - |
| 1777588500 | 7.78° C | 65% | 1028 hPa | 0 mm | - | - | - |
| 1777587900 | 7.78° C | 65% | 1028 hPa | 0 mm | - | - | - |
| 1777587300 | 7.78° C | 70% | 1029 hPa | 0 mm | - | - | - |
| 1777586700 | 7.78° C | 70% | 1029 hPa | 0 mm | - | - | - |
| 1777586100 | 7.78° C | 70% | 1029 hPa | 0 mm | - | - | - |
| 1777585500 | 7.78° C | 69% | 1029 hPa | 0 mm | - | - | - |
| 1777584900 | 7.78° C | 69% | 1029 hPa | 0 mm | - | - | - |
| 1777584300 | 8.89° C | 63% | 1029 hPa | 0 mm | - | - | - |
* Rain latest hour (hover to see other rain measurements)
** Current wind speed in m/s (hover to see current wind gust speed)